sensor_id;sensor_type;location;lat;lon;timestamp;P1;durP1;ratioP1;P2;durP2;ratioP2
33357;SDS011;19717;42.614;23.418;2022-11-15T00:00:08;3.05;;;1.85;;
33357;SDS011;19717;42.614;23.418;2022-11-15T00:02:34;2.85;;;2.65;;
33357;SDS011;19717;42.614;23.418;2022-11-15T00:05:00;2.72;;;2.30;;
33357;SDS011;19717;42.614;23.418;2022-11-15T00:07:26;2.60;;;2.20;;
33357;SDS011;19717;42.614;23.418;2022-11-15T00:09:53;5.25;;;3.58;;
33357;SDS011;19717;42.614;23.418;2022-11-15T00:12:19;1.77;;;1.48;;
33357;SDS011;19717;42.614;23.418;2022-11-15T00:14:45;2.90;;;2.55;;
33357;SDS011;19717;42.614;23.418;2022-11-15T00:17:11;1.60;;;1.50;;
33357;SDS011;19717;42.614;23.418;2022-11-15T00:19:37;3.00;;;2.47;;
33357;SDS011;19717;42.614;23.418;2022-11-15T00:22:03;2.05;;;1.83;;
33357;SDS011;19717;42.614;23.418;2022-11-15T00:24:29;2.63;;;2.30;;
33357;SDS011;19717;42.614;23.418;2022-11-15T00:26:55;3.97;;;2.85;;
33357;SDS011;19717;42.614;23.418;2022-11-15T00:29:21;2.65;;;2.30;;
33357;SDS011;19717;42.614;23.418;2022-11-15T00:31:47;6.15;;;2.13;;
33357;SDS011;19717;42.614;23.418;2022-11-15T00:34:13;3.45;;;2.53;;
33357;SDS011;19717;42.614;23.418;2022-11-15T00:36:39;9.82;;;3.38;;
33357;SDS011;19717;42.614;23.418;2022-11-15T00:39:05;1.75;;;1.65;;
33357;SDS011;19717;42.614;23.418;2022-11-15T00:41:31;3.42;;;3.13;;
33357;SDS011;19717;42.614;23.418;2022-11-15T00:43:58;1.73;;;1.52;;
33357;SDS011;19717;42.614;23.418;2022-11-15T00:46:24;2.95;;;2.05;;
33357;SDS011;19717;42.614;23.418;2022-11-15T00:48:50;2.25;;;2.00;;
33357;SDS011;19717;42.614;23.418;2022-11-15T00:51:16;1.85;;;1.52;;
33357;SDS011;19717;42.614;23.418;2022-11-15T00:53:42;2.00;;;1.73;;
33357;SDS011;19717;42.614;23.418;2022-11-15T00:56:08;3.72;;;2.85;;
33357;SDS011;19717;42.614;23.418;2022-11-15T00:58:34;3.22;;;1.58;;
33357;SDS011;19717;42.614;23.418;2022-11-15T01:01:10;7.55;;;2.78;;
33357;SDS011;19717;42.614;23.418;2022-11-15T01:03:37;3.28;;;2.28;;
33357;SDS011;19717;42.614;23.418;2022-11-15T01:06:03;4.43;;;3.13;;
33357;SDS011;19717;42.614;23.418;2022-11-15T01:08:29;2.95;;;2.03;;
33357;SDS011;19717;42.614;23.418;2022-11-15T01:11:00;5.93;;;3.95;;
33357;SDS011;19717;42.614;23.418;2022-11-15T01:13:28;4.18;;;2.55;;
33357;SDS011;19717;42.614;23.418;2022-11-15T01:15:54;3.72;;;2.72;;
33357;SDS011;19717;42.614;23.418;2022-11-15T01:18:20;3.47;;;3.17;;
33357;SDS011;19717;42.614;23.418;2022-11-15T01:20:47;2.92;;;2.72;;
33357;SDS011;19717;42.614;23.418;2022-11-15T01:23:13;2.25;;;2.05;;
33357;SDS011;19717;42.614;23.418;2022-11-15T01:25:39;3.17;;;2.15;;
33357;SDS011;19717;42.614;23.418;2022-11-15T01:28:05;4.25;;;2.47;;
33357;SDS011;19717;42.614;23.418;2022-11-15T01:30:31;2.10;;;1.90;;
33357;SDS011;19717;42.614;23.418;2022-11-15T01:32:57;2.97;;;2.33;;
33357;SDS011;19717;42.614;23.418;2022-11-15T01:35:23;3.75;;;1.38;;
33357;SDS011;19717;42.614;23.418;2022-11-15T01:37:49;3.63;;;2.58;;
33357;SDS011;19717;42.614;23.418;2022-11-15T01:40:15;3.25;;;2.55;;
33357;SDS011;19717;42.614;23.418;2022-11-15T01:42:41;2.22;;;2.05;;
33357;SDS011;19717;42.614;23.418;2022-11-15T01:45:12;5.32;;;2.53;;
33357;SDS011;19717;42.614;23.418;2022-11-15T01:47:40;1.65;;;1.58;;
33357;SDS011;19717;42.614;23.418;2022-11-15T01:50:09;2.03;;;1.92;;
33357;SDS011;19717;42.614;23.418;2022-11-15T01:52:36;2.50;;;1.52;;
33357;SDS011;19717;42.614;23.418;2022-11-15T01:55:11;3.53;;;1.52;;
33357;SDS011;19717;42.614;23.418;2022-11-15T01:57:41;3.67;;;2.42;;
33357;SDS011;19717;42.614;23.418;2022-11-15T02:00:08;12.73;;;1.88;;
33357;SDS011;19717;42.614;23.418;2022-11-15T02:02:35;2.97;;;1.88;;
33357;SDS011;19717;42.614;23.418;2022-11-15T02:05:01;2.15;;;2.00;;
33357;SDS011;19717;42.614;23.418;2022-11-15T02:07:27;4.93;;;2.45;;
33357;SDS011;19717;42.614;23.418;2022-11-15T02:09:54;0.85;;;0.85;;
33357;SDS011;19717;42.614;23.418;2022-11-15T02:12:20;3.17;;;2.53;;
33357;SDS011;19717;42.614;23.418;2022-11-15T02:14:48;6.72;;;2.72;;
33357;SDS011;19717;42.614;23.418;2022-11-15T02:30:43;9.77;;;4.03;;
33357;SDS011;19717;42.614;23.418;2022-11-15T02:40:49;1.58;;;1.42;;
33357;SDS011;19717;42.614;23.418;2022-11-15T02:43:18;6.53;;;3.33;;
33357;SDS011;19717;42.614;23.418;2022-11-15T02:46:12;2.33;;;1.98;;
33357;SDS011;19717;42.614;23.418;2022-11-15T02:48:40;3.88;;;2.85;;
33357;SDS011;19717;42.614;23.418;2022-11-15T02:51:07;2.60;;;2.25;;
33357;SDS011;19717;42.614;23.418;2022-11-15T02:53:34;5.30;;;2.97;;
33357;SDS011;19717;42.614;23.418;2022-11-15T02:56:00;3.03;;;2.65;;
33357;SDS011;19717;42.614;23.418;2022-11-15T03:01:35;8.45;;;4.95;;
33357;SDS011;19717;42.614;23.418;2022-11-15T03:04:29;1.85;;;1.75;;
33357;SDS011;19717;42.614;23.418;2022-11-15T03:07:35;3.80;;;3.45;;
33357;SDS011;19717;42.614;23.418;2022-11-15T03:10:29;2.15;;;2.00;;
33357;SDS011;19717;42.614;23.418;2022-11-15T03:12:56;3.28;;;2.75;;
33357;SDS011;19717;42.614;23.418;2022-11-15T03:15:28;4.35;;;3.30;;
33357;SDS011;19717;42.614;23.418;2022-11-15T03:18:02;4.97;;;3.17;;
33357;SDS011;19717;42.614;23.418;2022-11-15T03:20:31;3.38;;;2.55;;
33357;SDS011;19717;42.614;23.418;2022-11-15T03:23:00;7.45;;;3.33;;
33357;SDS011;19717;42.614;23.418;2022-11-15T03:25:26;4.38;;;2.97;;
33357;SDS011;19717;42.614;23.418;2022-11-15T03:27:55;8.75;;;4.82;;
33357;SDS011;19717;42.614;23.418;2022-11-15T03:30:22;4.90;;;4.38;;
33357;SDS011;19717;42.614;23.418;2022-11-15T03:32:53;6.32;;;3.33;;
33357;SDS011;19717;42.614;23.418;2022-11-15T03:35:21;4.03;;;3.63;;
33357;SDS011;19717;42.614;23.418;2022-11-15T03:40:17;9.25;;;4.95;;
33357;SDS011;19717;42.614;23.418;2022-11-15T03:42:46;11.05;;;3.47;;
33357;SDS011;19717;42.614;23.418;2022-11-15T03:45:22;11.00;;;4.55;;
33357;SDS011;19717;42.614;23.418;2022-11-15T03:47:51;7.10;;;3.78;;
33357;SDS011;19717;42.614;23.418;2022-11-15T03:50:19;11.30;;;4.75;;
33357;SDS011;19717;42.614;23.418;2022-11-15T03:52:46;2.33;;;2.20;;
33357;SDS011;19717;42.614;23.418;2022-11-15T03:55:14;2.15;;;1.95;;
33357;SDS011;19717;42.614;23.418;2022-11-15T03:57:40;4.65;;;4.25;;
33357;SDS011;19717;42.614;23.418;2022-11-15T04:00:07;2.10;;;2.00;;
33357;SDS011;19717;42.614;23.418;2022-11-15T04:02:33;9.65;;;3.70;;
33357;SDS011;19717;42.614;23.418;2022-11-15T04:04:59;7.28;;;4.32;;
33357;SDS011;19717;42.614;23.418;2022-11-15T04:07:25;6.88;;;4.47;;
33357;SDS011;19717;42.614;23.418;2022-11-15T04:09:55;8.27;;;4.32;;
33357;SDS011;19717;42.614;23.418;2022-11-15T04:12:28;9.50;;;5.00;;
33357;SDS011;19717;42.614;23.418;2022-11-15T04:15:00;8.40;;;5.07;;
33357;SDS011;19717;42.614;23.418;2022-11-15T04:17:39;6.07;;;4.32;;
33357;SDS011;19717;42.614;23.418;2022-11-15T04:20:19;3.55;;;3.08;;
33357;SDS011;19717;42.614;23.418;2022-11-15T04:23:06;3.78;;;2.78;;
33357;SDS011;19717;42.614;23.418;2022-11-15T04:25:52;7.28;;;5.20;;
33357;SDS011;19717;42.614;23.418;2022-11-15T04:28:18;9.02;;;5.88;;
33357;SDS011;19717;42.614;23.418;2022-11-15T04:30:44;3.42;;;2.58;;
33357;SDS011;19717;42.614;23.418;2022-11-15T04:33:10;4.15;;;3.72;;
33357;SDS011;19717;42.614;23.418;2022-11-15T04:35:36;6.45;;;4.40;;
33357;SDS011;19717;42.614;23.418;2022-11-15T04:38:03;3.53;;;2.28;;
33357;SDS011;19717;42.614;23.418;2022-11-15T04:40:29;7.60;;;3.65;;
33357;SDS011;19717;42.614;23.418;2022-11-15T04:42:56;3.42;;;2.35;;
33357;SDS011;19717;42.614;23.418;2022-11-15T04:45:22;5.45;;;3.25;;
33357;SDS011;19717;42.614;23.418;2022-11-15T04:47:49;5.20;;;2.95;;
33357;SDS011;19717;42.614;23.418;2022-11-15T04:50:15;7.35;;;3.03;;
33357;SDS011;19717;42.614;23.418;2022-11-15T04:52:42;4.70;;;4.20;;
33357;SDS011;19717;42.614;23.418;2022-11-15T04:55:11;4.55;;;4.10;;
33357;SDS011;19717;42.614;23.418;2022-11-15T04:57:38;4.68;;;3.15;;
33357;SDS011;19717;42.614;23.418;2022-11-15T05:00:05;8.23;;;5.65;;
33357;SDS011;19717;42.614;23.418;2022-11-15T05:02:31;18.33;;;6.00;;
33357;SDS011;19717;42.614;23.418;2022-11-15T05:05:15;7.50;;;5.25;;
33357;SDS011;19717;42.614;23.418;2022-11-15T05:07:41;7.88;;;5.95;;
33357;SDS011;19717;42.614;23.418;2022-11-15T05:10:08;9.65;;;6.55;;
33357;SDS011;19717;42.614;23.418;2022-11-15T05:12:34;7.82;;;4.28;;
33357;SDS011;19717;42.614;23.418;2022-11-15T05:15:00;12.30;;;6.57;;
33357;SDS011;19717;42.614;23.418;2022-11-15T05:17:26;11.98;;;5.43;;
33357;SDS011;19717;42.614;23.418;2022-11-15T05:19:52;4.05;;;3.40;;
33357;SDS011;19717;42.614;23.418;2022-11-15T05:22:19;6.45;;;4.28;;
33357;SDS011;19717;42.614;23.418;2022-11-15T05:24:45;3.80;;;2.92;;
33357;SDS011;19717;42.614;23.418;2022-11-15T05:27:11;7.65;;;4.38;;
33357;SDS011;19717;42.614;23.418;2022-11-15T05:29:37;12.93;;;6.43;;
33357;SDS011;19717;42.614;23.418;2022-11-15T05:32:04;6.45;;;4.25;;
33357;SDS011;19717;42.614;23.418;2022-11-15T05:34:31;11.10;;;5.80;;
33357;SDS011;19717;42.614;23.418;2022-11-15T05:36:57;4.95;;;3.97;;
33357;SDS011;19717;42.614;23.418;2022-11-15T05:39:24;9.73;;;4.57;;
33357;SDS011;19717;42.614;23.418;2022-11-15T05:41:54;12.57;;;5.78;;
33357;SDS011;19717;42.614;23.418;2022-11-15T05:44:22;8.13;;;5.03;;
33357;SDS011;19717;42.614;23.418;2022-11-15T05:46:50;5.57;;;3.28;;
33357;SDS011;19717;42.614;23.418;2022-11-15T05:49:21;6.53;;;3.88;;
33357;SDS011;19717;42.614;23.418;2022-11-15T05:51:49;7.20;;;4.05;;
33357;SDS011;19717;42.614;23.418;2022-11-15T05:54:16;4.82;;;3.10;;
33357;SDS011;19717;42.614;23.418;2022-11-15T05:56:43;3.00;;;2.80;;
33357;SDS011;19717;42.614;23.418;2022-11-15T05:59:09;14.55;;;7.93;;
33357;SDS011;19717;42.614;23.418;2022-11-15T06:01:36;7.95;;;5.45;;
33357;SDS011;19717;42.614;23.418;2022-11-15T06:04:02;3.92;;;3.20;;
33357;SDS011;19717;42.614;23.418;2022-11-15T06:06:29;2.88;;;2.58;;
33357;SDS011;19717;42.614;23.418;2022-11-15T06:08:55;4.82;;;3.85;;
33357;SDS011;19717;42.614;23.418;2022-11-15T06:11:21;11.82;;;4.95;;
33357;SDS011;19717;42.614;23.418;2022-11-15T06:13:47;4.47;;;3.10;;
33357;SDS011;19717;42.614;23.418;2022-11-15T06:16:13;34.97;;;13.23;;
33357;SDS011;19717;42.614;23.418;2022-11-15T06:18:39;18.63;;;10.73;;
33357;SDS011;19717;42.614;23.418;2022-11-15T06:21:05;13.70;;;6.72;;
33357;SDS011;19717;42.614;23.418;2022-11-15T06:23:32;8.73;;;4.75;;
33357;SDS011;19717;42.614;23.418;2022-11-15T06:25:59;18.33;;;11.00;;
33357;SDS011;19717;42.614;23.418;2022-11-15T06:28:27;12.30;;;8.43;;
33357;SDS011;19717;42.614;23.418;2022-11-15T06:30:54;14.23;;;9.77;;
33357;SDS011;19717;42.614;23.418;2022-11-15T06:33:20;7.32;;;4.93;;
33357;SDS011;19717;42.614;23.418;2022-11-15T06:35:46;10.95;;;6.28;;
33357;SDS011;19717;42.614;23.418;2022-11-15T06:38:12;5.95;;;4.05;;
33357;SDS011;19717;42.614;23.418;2022-11-15T06:40:38;11.85;;;5.05;;
33357;SDS011;19717;42.614;23.418;2022-11-15T06:43:05;8.63;;;5.28;;
33357;SDS011;19717;42.614;23.418;2022-11-15T06:45:31;9.57;;;5.85;;
33357;SDS011;19717;42.614;23.418;2022-11-15T06:47:58;5.13;;;3.83;;
33357;SDS011;19717;42.614;23.418;2022-11-15T06:50:24;4.93;;;4.10;;
33357;SDS011;19717;42.614;23.418;2022-11-15T06:52:50;14.95;;;6.45;;
33357;SDS011;19717;42.614;23.418;2022-11-15T06:55:16;6.07;;;5.43;;
33357;SDS011;19717;42.614;23.418;2022-11-15T06:57:46;4.25;;;2.05;;
33357;SDS011;19717;42.614;23.418;2022-11-15T07:00:13;3.88;;;2.25;;
33357;SDS011;19717;42.614;23.418;2022-11-15T07:02:39;4.18;;;3.75;;
33357;SDS011;19717;42.614;23.418;2022-11-15T07:05:05;4.20;;;3.80;;
33357;SDS011;19717;42.614;23.418;2022-11-15T07:07:31;12.85;;;4.15;;
33357;SDS011;19717;42.614;23.418;2022-11-15T07:09:57;6.35;;;4.15;;
33357;SDS011;19717;42.614;23.418;2022-11-15T07:12:23;4.80;;;3.65;;
33357;SDS011;19717;42.614;23.418;2022-11-15T07:14:49;2.83;;;2.58;;
33357;SDS011;19717;42.614;23.418;2022-11-15T07:17:15;2.42;;;2.28;;
33357;SDS011;19717;42.614;23.418;2022-11-15T07:19:41;3.63;;;3.05;;
33357;SDS011;19717;42.614;23.418;2022-11-15T07:22:07;6.47;;;3.30;;
33357;SDS011;19717;42.614;23.418;2022-11-15T07:24:34;5.70;;;3.90;;
33357;SDS011;19717;42.614;23.418;2022-11-15T07:27:00;9.23;;;5.05;;
33357;SDS011;19717;42.614;23.418;2022-11-15T07:29:26;13.38;;;4.45;;
33357;SDS011;19717;42.614;23.418;2022-11-15T07:31:52;6.70;;;5.03;;
33357;SDS011;19717;42.614;23.418;2022-11-15T07:34:18;5.70;;;4.55;;
33357;SDS011;19717;42.614;23.418;2022-11-15T07:36:44;7.72;;;3.20;;
33357;SDS011;19717;42.614;23.418;2022-11-15T07:39:10;9.50;;;3.88;;
33357;SDS011;19717;42.614;23.418;2022-11-15T07:41:37;5.03;;;3.67;;
33357;SDS011;19717;42.614;23.418;2022-11-15T07:44:03;5.03;;;3.40;;
33357;SDS011;19717;42.614;23.418;2022-11-15T07:46:30;5.45;;;3.20;;
33357;SDS011;19717;42.614;23.418;2022-11-15T07:48:57;6.70;;;4.05;;
33357;SDS011;19717;42.614;23.418;2022-11-15T07:51:23;7.30;;;3.45;;
33357;SDS011;19717;42.614;23.418;2022-11-15T07:53:49;4.55;;;3.67;;
33357;SDS011;19717;42.614;23.418;2022-11-15T07:56:15;6.78;;;4.80;;
33357;SDS011;19717;42.614;23.418;2022-11-15T07:58:41;8.40;;;4.43;;
33357;SDS011;19717;42.614;23.418;2022-11-15T08:01:08;7.97;;;3.63;;
33357;SDS011;19717;42.614;23.418;2022-11-15T08:03:35;10.23;;;4.70;;
33357;SDS011;19717;42.614;23.418;2022-11-15T08:06:01;3.55;;;3.25;;
33357;SDS011;19717;42.614;23.418;2022-11-15T08:08:27;7.43;;;4.55;;
33357;SDS011;19717;42.614;23.418;2022-11-15T08:10:53;14.10;;;9.30;;
33357;SDS011;19717;42.614;23.418;2022-11-15T08:13:20;8.20;;;6.93;;
33357;SDS011;19717;42.614;23.418;2022-11-15T08:15:46;8.85;;;7.75;;
33357;SDS011;19717;42.614;23.418;2022-11-15T08:18:13;7.50;;;4.70;;
33357;SDS011;19717;42.614;23.418;2022-11-15T08:20:40;5.03;;;2.65;;
33357;SDS011;19717;42.614;23.418;2022-11-15T08:23:07;7.28;;;4.00;;
33357;SDS011;19717;42.614;23.418;2022-11-15T08:25:33;4.60;;;3.22;;
33357;SDS011;19717;42.614;23.418;2022-11-15T08:28:01;5.25;;;2.72;;
33357;SDS011;19717;42.614;23.418;2022-11-15T08:30:28;6.45;;;3.58;;
33357;SDS011;19717;42.614;23.418;2022-11-15T08:32:56;4.95;;;2.22;;
33357;SDS011;19717;42.614;23.418;2022-11-15T08:35:24;8.23;;;5.20;;
33357;SDS011;19717;42.614;23.418;2022-11-15T08:37:51;5.97;;;3.70;;
33357;SDS011;19717;42.614;23.418;2022-11-15T08:40:18;5.63;;;3.28;;
33357;SDS011;19717;42.614;23.418;2022-11-15T08:42:47;13.45;;;6.15;;
33357;SDS011;19717;42.614;23.418;2022-11-15T08:45:13;7.40;;;4.18;;
33357;SDS011;19717;42.614;23.418;2022-11-15T08:47:39;5.82;;;4.28;;
33357;SDS011;19717;42.614;23.418;2022-11-15T08:50:06;8.70;;;5.80;;
33357;SDS011;19717;42.614;23.418;2022-11-15T08:52:32;8.70;;;5.03;;
33357;SDS011;19717;42.614;23.418;2022-11-15T08:55:00;4.65;;;3.45;;
33357;SDS011;19717;42.614;23.418;2022-11-15T08:57:30;7.55;;;3.38;;
33357;SDS011;19717;42.614;23.418;2022-11-15T08:59:56;5.80;;;3.55;;
33357;SDS011;19717;42.614;23.418;2022-11-15T09:02:25;6.78;;;4.80;;
33357;SDS011;19717;42.614;23.418;2022-11-15T09:04:51;10.90;;;5.03;;
33357;SDS011;19717;42.614;23.418;2022-11-15T09:07:17;7.30;;;4.40;;
33357;SDS011;19717;42.614;23.418;2022-11-15T09:09:43;12.93;;;6.13;;
33357;SDS011;19717;42.614;23.418;2022-11-15T09:12:10;12.68;;;9.52;;
33357;SDS011;19717;42.614;23.418;2022-11-15T09:14:36;18.65;;;8.95;;
33357;SDS011;19717;42.614;23.418;2022-11-15T09:17:02;5.22;;;4.03;;
33357;SDS011;19717;42.614;23.418;2022-11-15T09:19:28;8.98;;;4.70;;
33357;SDS011;19717;42.614;23.418;2022-11-15T09:21:54;13.05;;;7.55;;
33357;SDS011;19717;42.614;23.418;2022-11-15T09:24:20;12.73;;;6.57;;
33357;SDS011;19717;42.614;23.418;2022-11-15T09:26:46;7.38;;;5.43;;
33357;SDS011;19717;42.614;23.418;2022-11-15T09:29:12;8.50;;;6.07;;
33357;SDS011;19717;42.614;23.418;2022-11-15T09:31:38;8.85;;;5.47;;
33357;SDS011;19717;42.614;23.418;2022-11-15T09:34:04;4.78;;;3.83;;
33357;SDS011;19717;42.614;23.418;2022-11-15T09:36:30;6.00;;;3.38;;
33357;SDS011;19717;42.614;23.418;2022-11-15T09:39:00;6.35;;;4.72;;
33357;SDS011;19717;42.614;23.418;2022-11-15T09:46:44;5.95;;;5.07;;
33357;SDS011;19717;42.614;23.418;2022-11-15T09:49:13;7.05;;;4.72;;
33357;SDS011;19717;42.614;23.418;2022-11-15T09:51:44;7.55;;;4.05;;
33357;SDS011;19717;42.614;23.418;2022-11-15T09:54:16;2.78;;;2.33;;
33357;SDS011;19717;42.614;23.418;2022-11-15T09:56:45;7.47;;;4.30;;
33357;SDS011;19717;42.614;23.418;2022-11-15T10:04:13;3.58;;;3.28;;
33357;SDS011;19717;42.614;23.418;2022-11-15T10:06:41;6.10;;;3.92;;
33357;SDS011;19717;42.614;23.418;2022-11-15T10:09:29;6.05;;;3.28;;
33357;SDS011;19717;42.614;23.418;2022-11-15T10:11:57;4.93;;;4.47;;
33357;SDS011;19717;42.614;23.418;2022-11-15T10:14:24;5.05;;;4.55;;
33357;SDS011;19717;42.614;23.418;2022-11-15T10:24:18;10.60;;;6.25;;
33357;SDS011;19717;42.614;23.418;2022-11-15T10:26:46;5.93;;;5.30;;
33357;SDS011;19717;42.614;23.418;2022-11-15T10:29:17;9.73;;;5.70;;
33357;SDS011;19717;42.614;23.418;2022-11-15T10:31:43;5.78;;;4.15;;
33357;SDS011;19717;42.614;23.418;2022-11-15T10:34:13;15.43;;;7.03;;
33357;SDS011;19717;42.614;23.418;2022-11-15T10:36:43;4.50;;;3.90;;
33357;SDS011;19717;42.614;23.418;2022-11-15T10:39:11;4.63;;;3.95;;
33357;SDS011;19717;42.614;23.418;2022-11-15T10:41:38;7.32;;;5.93;;
33357;SDS011;19717;42.614;23.418;2022-11-15T10:46:47;8.48;;;5.32;;
33357;SDS011;19717;42.614;23.418;2022-11-15T10:51:48;14.10;;;5.40;;
33357;SDS011;19717;42.614;23.418;2022-11-15T10:54:20;8.10;;;4.45;;
33357;SDS011;19717;42.614;23.418;2022-11-15T10:56:50;7.40;;;4.60;;
33357;SDS011;19717;42.614;23.418;2022-11-15T10:59:20;10.68;;;6.22;;
33357;SDS011;19717;42.614;23.418;2022-11-15T11:01:49;13.15;;;7.13;;
33357;SDS011;19717;42.614;23.418;2022-11-15T11:04:15;11.27;;;4.95;;
33357;SDS011;19717;42.614;23.418;2022-11-15T11:06:52;11.75;;;5.63;;
33357;SDS011;19717;42.614;23.418;2022-11-15T11:09:23;12.77;;;6.20;;
33357;SDS011;19717;42.614;23.418;2022-11-15T11:11:52;8.93;;;5.32;;
33357;SDS011;19717;42.614;23.418;2022-11-15T11:16:55;7.35;;;5.22;;
33357;SDS011;19717;42.614;23.418;2022-11-15T11:30:14;10.32;;;6.80;;
33357;SDS011;19717;42.614;23.418;2022-11-15T11:35:14;9.10;;;5.40;;
33357;SDS011;19717;42.614;23.418;2022-11-15T11:37:49;11.70;;;6.40;;
33357;SDS011;19717;42.614;23.418;2022-11-15T11:43:06;10.13;;;5.00;;
33357;SDS011;19717;42.614;23.418;2022-11-15T11:48:49;11.60;;;5.40;;
33357;SDS011;19717;42.614;23.418;2022-11-15T11:51:20;8.10;;;5.82;;
33357;SDS011;19717;42.614;23.418;2022-11-15T11:53:54;14.03;;;6.43;;
33357;SDS011;19717;42.614;23.418;2022-11-15T11:56:26;12.15;;;5.75;;
33357;SDS011;19717;42.614;23.418;2022-11-15T12:01:23;9.68;;;5.35;;
33357;SDS011;19717;42.614;23.418;2022-11-15T12:11:54;11.43;;;6.03;;
33357;SDS011;19717;42.614;23.418;2022-11-15T12:16:50;20.65;;;7.63;;
33357;SDS011;19717;42.614;23.418;2022-11-15T12:19:19;15.75;;;6.35;;
33357;SDS011;19717;42.614;23.418;2022-11-15T12:24:46;10.95;;;4.85;;
33357;SDS011;19717;42.614;23.418;2022-11-15T12:27:17;15.98;;;6.38;;
33357;SDS011;19717;42.614;23.418;2022-11-15T12:29:48;14.23;;;6.85;;
33357;SDS011;19717;42.614;23.418;2022-11-15T12:34:43;10.93;;;5.07;;
33357;SDS011;19717;42.614;23.418;2022-11-15T12:45:01;9.80;;;4.93;;
33357;SDS011;19717;42.614;23.418;2022-11-15T12:47:27;11.80;;;5.57;;
33357;SDS011;19717;42.614;23.418;2022-11-15T12:49:53;17.25;;;7.15;;
33357;SDS011;19717;42.614;23.418;2022-11-15T12:52:19;9.77;;;6.13;;
33357;SDS011;19717;42.614;23.418;2022-11-15T12:54:50;9.93;;;6.05;;
33357;SDS011;19717;42.614;23.418;2022-11-15T13:04:46;9.68;;;5.57;;
33357;SDS011;19717;42.614;23.418;2022-11-15T13:09:57;9.88;;;6.18;;
33357;SDS011;19717;42.614;23.418;2022-11-15T13:17:29;12.40;;;6.75;;
33357;SDS011;19717;42.614;23.418;2022-11-15T13:20:11;9.70;;;4.72;;
33357;SDS011;19717;42.614;23.418;2022-11-15T13:22:49;10.90;;;5.35;;
33357;SDS011;19717;42.614;23.418;2022-11-15T13:27:50;10.70;;;4.63;;
33357;SDS011;19717;42.614;23.418;2022-11-15T13:30:24;10.45;;;6.63;;
33357;SDS011;19717;42.614;23.418;2022-11-15T13:32:50;9.45;;;4.22;;
33357;SDS011;19717;42.614;23.418;2022-11-15T13:35:23;9.32;;;4.70;;
33357;SDS011;19717;42.614;23.418;2022-11-15T13:37:50;7.47;;;4.40;;
33357;SDS011;19717;42.614;23.418;2022-11-15T13:40:27;9.55;;;5.38;;
33357;SDS011;19717;42.614;23.418;2022-11-15T13:42:55;8.90;;;5.28;;
33357;SDS011;19717;42.614;23.418;2022-11-15T13:45:22;6.93;;;4.10;;
33357;SDS011;19717;42.614;23.418;2022-11-15T13:47:55;9.48;;;4.32;;
33357;SDS011;19717;42.614;23.418;2022-11-15T13:50:22;8.55;;;4.50;;
33357;SDS011;19717;42.614;23.418;2022-11-15T13:52:50;9.30;;;5.10;;
33357;SDS011;19717;42.614;23.418;2022-11-15T13:55:18;5.90;;;4.20;;
33357;SDS011;19717;42.614;23.418;2022-11-15T13:57:53;9.05;;;3.75;;
33357;SDS011;19717;42.614;23.418;2022-11-15T14:00:57;8.45;;;5.40;;
33357;SDS011;19717;42.614;23.418;2022-11-15T14:05:42;4.95;;;4.40;;
33357;SDS011;19717;42.614;23.418;2022-11-15T14:08:26;7.18;;;5.10;;
33357;SDS011;19717;42.614;23.418;2022-11-15T14:13:33;9.55;;;4.28;;
33357;SDS011;19717;42.614;23.418;2022-11-15T14:16:17;7.90;;;5.90;;
33357;SDS011;19717;42.614;23.418;2022-11-15T14:18:52;7.82;;;5.47;;
33357;SDS011;19717;42.614;23.418;2022-11-15T14:21:19;7.07;;;4.55;;
33357;SDS011;19717;42.614;23.418;2022-11-15T14:23:45;7.97;;;4.97;;
33357;SDS011;19717;42.614;23.418;2022-11-15T14:28:55;7.70;;;4.07;;
33357;SDS011;19717;42.614;23.418;2022-11-15T14:31:21;11.65;;;4.82;;
33357;SDS011;19717;42.614;23.418;2022-11-15T14:33:47;13.02;;;4.78;;
33357;SDS011;19717;42.614;23.418;2022-11-15T14:36:14;7.63;;;4.50;;
33357;SDS011;19717;42.614;23.418;2022-11-15T14:38:41;20.17;;;11.85;;
33357;SDS011;19717;42.614;23.418;2022-11-15T14:41:18;55.92;;;21.65;;
33357;SDS011;19717;42.614;23.418;2022-11-15T14:43:44;35.78;;;13.43;;
33357;SDS011;19717;42.614;23.418;2022-11-15T14:46:11;7.07;;;5.50;;
33357;SDS011;19717;42.614;23.418;2022-11-15T14:48:37;7.15;;;5.18;;
33357;SDS011;19717;42.614;23.418;2022-11-15T14:51:03;8.88;;;6.25;;
33357;SDS011;19717;42.614;23.418;2022-11-15T14:53:29;8.48;;;4.85;;
33357;SDS011;19717;42.614;23.418;2022-11-15T14:55:55;9.38;;;4.57;;
33357;SDS011;19717;42.614;23.418;2022-11-15T14:58:21;8.80;;;4.47;;
33357;SDS011;19717;42.614;23.418;2022-11-15T15:00:47;4.65;;;3.72;;
33357;SDS011;19717;42.614;23.418;2022-11-15T15:03:13;6.75;;;5.07;;
33357;SDS011;19717;42.614;23.418;2022-11-15T15:05:41;12.80;;;6.18;;
33357;SDS011;19717;42.614;23.418;2022-11-15T15:08:07;10.00;;;6.65;;
33357;SDS011;19717;42.614;23.418;2022-11-15T15:10:40;11.57;;;5.32;;
33357;SDS011;19717;42.614;23.418;2022-11-15T15:13:14;8.10;;;4.50;;
33357;SDS011;19717;42.614;23.418;2022-11-15T15:15:41;8.75;;;5.75;;
33357;SDS011;19717;42.614;23.418;2022-11-15T15:18:07;7.50;;;4.25;;
33357;SDS011;19717;42.614;23.418;2022-11-15T15:20:37;7.80;;;5.03;;
33357;SDS011;19717;42.614;23.418;2022-11-15T15:23:04;4.32;;;3.92;;
33357;SDS011;19717;42.614;23.418;2022-11-15T15:25:31;5.50;;;3.45;;
33357;SDS011;19717;42.614;23.418;2022-11-15T15:27:57;8.20;;;3.55;;
33357;SDS011;19717;42.614;23.418;2022-11-15T15:30:24;8.18;;;4.15;;
33357;SDS011;19717;42.614;23.418;2022-11-15T15:32:50;5.68;;;3.60;;
33357;SDS011;19717;42.614;23.418;2022-11-15T15:35:16;6.28;;;3.75;;
33357;SDS011;19717;42.614;23.418;2022-11-15T15:37:43;8.75;;;4.65;;
33357;SDS011;19717;42.614;23.418;2022-11-15T15:42:38;4.00;;;3.22;;
33357;SDS011;19717;42.614;23.418;2022-11-15T15:45:04;6.10;;;4.30;;
33357;SDS011;19717;42.614;23.418;2022-11-15T15:47:31;26.23;;;9.45;;
33357;SDS011;19717;42.614;23.418;2022-11-15T15:49:57;7.38;;;5.78;;
33357;SDS011;19717;42.614;23.418;2022-11-15T15:52:23;14.85;;;5.13;;
33357;SDS011;19717;42.614;23.418;2022-11-15T15:54:50;8.40;;;4.03;;
33357;SDS011;19717;42.614;23.418;2022-11-15T15:57:16;11.60;;;5.78;;
33357;SDS011;19717;42.614;23.418;2022-11-15T15:59:42;5.85;;;4.25;;
33357;SDS011;19717;42.614;23.418;2022-11-15T16:02:14;8.45;;;4.40;;
33357;SDS011;19717;42.614;23.418;2022-11-15T16:04:43;6.10;;;3.78;;
33357;SDS011;19717;42.614;23.418;2022-11-15T16:07:17;7.43;;;5.28;;
33357;SDS011;19717;42.614;23.418;2022-11-15T16:09:45;4.85;;;3.45;;
33357;SDS011;19717;42.614;23.418;2022-11-15T16:12:29;9.25;;;4.88;;
33357;SDS011;19717;42.614;23.418;2022-11-15T16:14:56;7.07;;;5.05;;
33357;SDS011;19717;42.614;23.418;2022-11-15T16:17:23;11.02;;;3.65;;
33357;SDS011;19717;42.614;23.418;2022-11-15T16:19:50;3.97;;;3.15;;
33357;SDS011;19717;42.614;23.418;2022-11-15T16:22:16;3.25;;;2.35;;
33357;SDS011;19717;42.614;23.418;2022-11-15T16:24:42;8.02;;;3.60;;
33357;SDS011;19717;42.614;23.418;2022-11-15T16:27:14;4.03;;;3.63;;
33357;SDS011;19717;42.614;23.418;2022-11-15T16:29:41;3.05;;;2.67;;
33357;SDS011;19717;42.614;23.418;2022-11-15T16:32:07;5.38;;;3.92;;
33357;SDS011;19717;42.614;23.418;2022-11-15T16:34:33;6.97;;;3.20;;
33357;SDS011;19717;42.614;23.418;2022-11-15T16:36:59;3.65;;;3.28;;
33357;SDS011;19717;42.614;23.418;2022-11-15T16:39:25;4.40;;;3.80;;
33357;SDS011;19717;42.614;23.418;2022-11-15T16:41:54;4.72;;;2.55;;